View Sortable Currents For Network
ASOSAWOSCoCoRaHSCOOPDCPISUSM
SchoolNetOtherSCANMy FavoritesBy StateRWIS
RWIS SurfaceRWIS TrafficRWIS SoilBy NWS WFOUSCRN

Current AWOS Conditions

** This page will automatically refresh every five minutes.
Sorted by: (Today's Low Temperature)     Click on a column to sort it.

Add ID: Name: Ob Time   Wind [knots]   Rainfall
Temp (Hi / Lo) DewP Feels RH% Dir Speed Peak Gust
@ Time
Alti Vsby Hour Today
I75Osceola08:15 PM 14(15/9) 9 1 80 350 919 @ 12:15 AM 30.12 10 0
EOKKEOKUK MUNI08:15 PM 14(16/9) 9 2 80 320 822 @ 02:35 AM 30.11 10 0
MPZMOUNT PLEASANT08:15 PM 16(16/9) 10 2 77 330 12G1523 @ 12:35 AM 30.12 10 0
FSWFORT MADISON15 Feb 07:15 PM 14(16/9) 9 3 80 320 723 @ 12:15 AM 30.11 10 0
CWICLINTON07:56 PM 10(12/8) 5 -4 80 300 926 @ 12:25 AM 30.09 10 0
PEAPELLA08:15 PM 12(12/7) 6 1 76 330 624 @ 12:15 AM 30.15 10 0
FODFORT DODGE07:56 PM 7(12/7) 2 -3 79 330 510 @ 08:56 AM 30.14 10 0 0.0001
IFAIowa Falls08:15 PM 7(13/7) 3 -7 83 330 822 @ 02:15 AM 30.13 10 0
SDASHENANDOAH MUNI08:15 PM 10(12/7) 7 4 87 10 314 @ 03:35 AM 30.15 10 0
OOAOskaloosa08:15 PM 10(11/6) 6 -3 84 320 828 @ 12:15 AM 30.14 10 0
PROPerry08:35 PM 12(14/6) 8 84 0 017 @ 06:15 AM 30.14 10 0
CNCCHARITON08:15 PM 12(12/5) 7 -0 80 340 820 @ 04:15 AM 30.12 10 0
FFLFAIRFIELD08:15 PM 12(12/5) 5 -3 73 320 1129 @ 12:15 AM 30.12 10 0
CKPCherokee08:15 PM 7(10/5) 4 87 0 09 @ 10:35 AM 30.14 10 0
RDKRED OAK08:15 PM 12(12/5) 7 1 80 10 619 @ 03:15 AM 30.14 10 0
ICLCLARINDA08:15 PM 10(12/5) 7 2 87 20 418 @ 02:15 AM 30.15 10 0
VTIVINTON08:15 PM 8(11/4) 2 -5 76 320 819 @ 12:35 AM 30.12 10 0
GGIGrinnell08:35 PM 9(11/4) 5 -3 83 310 723 @ 12:35 AM 30.13 10 0
CBFCOUNCIL BLUFFS08:15 PM 10(10/3) 7 2 87 360 418 @ 03:15 AM 30.12 10 0
AWGWASHINGTON08:15 PM 12(12/3) 7 -1 80 310 928 @ 12:15 AM 30.13 10 0
MUTMUSCATINE08:15 PM 12(14/3) 5 -1 73 320 927 @ 12:55 AM 30.14 10 0
CSQCRESTON08:15 PM 12(12/3) 7 -2 80 20 1017 @ 04:35 AM 30.11 10 0
OXVKnoxville08:15 PM 12(12/3) 9 0 87 330 722 @ 12:55 AM 30.13 10 0
ADUAUDUBON08:15 PM 10(12/1) 7 87 0 018 @ 06:35 AM 30.11 10 0
IKVANKENY08:15 PM 12(14/1) 7 1 80 340 621 @ 12:15 AM 30.16 10 0
AIOATLANTIC08:15 PM 12(12/1) 9 0 87 20 715 @ 03:35 AM 30.12 10 0
HNRHARLAN08:15 PM 12(12/-0) 7 -2 80 20 1017 @ 03:55 AM 30.11 10 0
CINCARROLL08:15 PM 10(12/-0) 7 -2 87 340 724 @ 12:15 AM 30.13 10 0
TNUNEWTON MUNI08:15 PM 10(10/-0) 5 -3 80 330 822 @ 12:35 AM 30.13 10 0
IIBINDEPENDENCE08:15 PM 8(13/-2) 3 -10 80 350 1424 @ 01:15 AM 30.09 10 0
DNSDENISON08:15 PM 10(10/-2) 5 -5 80 30 1015 @ 05:55 AM 30.13 10 0
BNWBOONE MUNI08:15 PM 10(12/-2) 7 -5 87 340 1122 @ 01:15 AM 30.12 10 0
FXYForest City08:15 PM 3(9/-4) -0 330 729 @ 12:35 AM 30.12 10 0
EBSWebster City08:15 PM 7(10/-4) 1 -6 76 320 718 @ 01:15 AM 30.12 10 0
CAVCLARION08:15 PM 3(10/-4) -2 -12 79 350 823 @ 03:15 AM 30.12 10 0
HPTHampton08:15 PM 5(10/-4) -4 -11 66 350 1027 @ 12:55 AM 30.11 10 0
OLZOELWEIN08:15 PM 3(9/-6) 1 -12 91 340 922 @ 04:15 AM 30.11 10 0
ORCOrange City08:15 PM 7(10/-6) 3 -5 83 360 615 @ 12:15 AM 30.12 10 0
AXAALGONA08:15 PM 3(10/-6) -0 627 @ 12:15 AM 30.11 10 0
LRJLE MARS08:15 PM 9(10/-6) 3 -2 76 20 612 @ 02:35 AM 30.15 10 0
CCYCHARLES CITY08:15 PM 3(9/-6) -2 -13 79 330 1028 @ 12:55 AM 30.12 10 0
DEHDECORAH08:15 PM 1(10/-6) -0 340 425 @ 02:15 AM 30.1 10 0
SLBStorm Lake08:15 PM 5(9/-8) 3 -6 91 330 520 @ 04:55 AM 30.11 10 0
SHLSHELDON08:15 PM 3(10/-8) 3 -6 100 310 413 @ 12:55 AM 30.11 10 0